sensor_id;sensor_type;location;lat;lon;timestamp;P1;durP1;ratioP1;P2;durP2;ratioP2
3941;SDS011;1985;48.592;8.850;2023-05-16T00:01:17;14.10;;;5.70;;
3941;SDS011;1985;48.592;8.850;2023-05-16T00:03:43;13.07;;;5.88;;
3941;SDS011;1985;48.592;8.850;2023-05-16T00:06:09;16.48;;;5.70;;
3941;SDS011;1985;48.592;8.850;2023-05-16T00:08:35;15.90;;;5.68;;
3941;SDS011;1985;48.592;8.850;2023-05-16T00:11:00;11.93;;;4.72;;
3941;SDS011;1985;48.592;8.850;2023-05-16T00:13:27;12.50;;;4.70;;
3941;SDS011;1985;48.592;8.850;2023-05-16T00:15:56;14.37;;;5.20;;
3941;SDS011;1985;48.592;8.850;2023-05-16T00:18:23;13.60;;;4.93;;
3941;SDS011;1985;48.592;8.850;2023-05-16T00:20:51;13.95;;;4.90;;
3941;SDS011;1985;48.592;8.850;2023-05-16T00:23:17;12.10;;;5.10;;
3941;SDS011;1985;48.592;8.850;2023-05-16T00:25:43;15.43;;;5.10;;
3941;SDS011;1985;48.592;8.850;2023-05-16T00:28:10;14.05;;;5.45;;
3941;SDS011;1985;48.592;8.850;2023-05-16T00:30:35;12.30;;;5.00;;
3941;SDS011;1985;48.592;8.850;2023-05-16T00:33:01;12.15;;;5.05;;
3941;SDS011;1985;48.592;8.850;2023-05-16T00:35:27;12.53;;;4.67;;
3941;SDS011;1985;48.592;8.850;2023-05-16T00:37:52;13.38;;;4.75;;
3941;SDS011;1985;48.592;8.850;2023-05-16T00:40:18;14.52;;;4.95;;
3941;SDS011;1985;48.592;8.850;2023-05-16T00:42:44;12.40;;;4.77;;
3941;SDS011;1985;48.592;8.850;2023-05-16T00:45:09;13.73;;;5.90;;
3941;SDS011;1985;48.592;8.850;2023-05-16T00:47:36;14.18;;;6.80;;
3941;SDS011;1985;48.592;8.850;2023-05-16T00:50:02;15.47;;;7.40;;
3941;SDS011;1985;48.592;8.850;2023-05-16T00:52:28;16.27;;;7.50;;
3941;SDS011;1985;48.592;8.850;2023-05-16T00:54:55;19.77;;;8.38;;
3941;SDS011;1985;48.592;8.850;2023-05-16T00:57:21;17.30;;;8.80;;
3941;SDS011;1985;48.592;8.850;2023-05-16T00:59:47;21.17;;;10.95;;
3941;SDS011;1985;48.592;8.850;2023-05-16T01:02:14;21.00;;;10.57;;
3941;SDS011;1985;48.592;8.850;2023-05-16T01:04:40;21.55;;;11.25;;
3941;SDS011;1985;48.592;8.850;2023-05-16T01:07:07;22.58;;;11.40;;
3941;SDS011;1985;48.592;8.850;2023-05-16T01:09:32;26.00;;;13.80;;
3941;SDS011;1985;48.592;8.850;2023-05-16T01:12:16;25.40;;;11.85;;
3941;SDS011;1985;48.592;8.850;2023-05-16T01:15:10;23.33;;;12.30;;
3941;SDS011;1985;48.592;8.850;2023-05-16T01:17:43;25.25;;;13.10;;
3941;SDS011;1985;48.592;8.850;2023-05-16T01:20:28;25.40;;;13.15;;
3941;SDS011;1985;48.592;8.850;2023-05-16T01:23:02;22.35;;;12.00;;
3941;SDS011;1985;48.592;8.850;2023-05-16T01:28:05;27.10;;;14.05;;
3941;SDS011;1985;48.592;8.850;2023-05-16T01:30:34;25.83;;;13.23;;
3941;SDS011;1985;48.592;8.850;2023-05-16T01:33:01;28.90;;;15.57;;
3941;SDS011;1985;48.592;8.850;2023-05-16T01:35:27;30.92;;;16.58;;
3941;SDS011;1985;48.592;8.850;2023-05-16T01:38:10;28.05;;;15.75;;
3941;SDS011;1985;48.592;8.850;2023-05-16T01:43:40;34.10;;;18.10;;
3941;SDS011;1985;48.592;8.850;2023-05-16T01:46:10;34.13;;;17.23;;
3941;SDS011;1985;48.592;8.850;2023-05-16T01:48:42;31.10;;;16.85;;
3941;SDS011;1985;48.592;8.850;2023-05-16T01:51:15;32.70;;;18.20;;
3941;SDS011;1985;48.592;8.850;2023-05-16T01:53:42;32.30;;;18.15;;
3941;SDS011;1985;48.592;8.850;2023-05-16T01:56:10;35.88;;;18.15;;
3941;SDS011;1985;48.592;8.850;2023-05-16T01:58:39;32.90;;;18.02;;
3941;SDS011;1985;48.592;8.850;2023-05-16T02:01:06;34.80;;;18.35;;
3941;SDS011;1985;48.592;8.850;2023-05-16T02:03:32;35.20;;;19.60;;
3941;SDS011;1985;48.592;8.850;2023-05-16T02:05:58;36.65;;;19.98;;
3941;SDS011;1985;48.592;8.850;2023-05-16T02:08:24;39.83;;;20.43;;
3941;SDS011;1985;48.592;8.850;2023-05-16T02:10:51;37.03;;;20.80;;
3941;SDS011;1985;48.592;8.850;2023-05-16T02:13:17;39.85;;;19.88;;
3941;SDS011;1985;48.592;8.850;2023-05-16T02:15:43;39.90;;;20.87;;
3941;SDS011;1985;48.592;8.850;2023-05-16T02:18:09;36.23;;;20.40;;
3941;SDS011;1985;48.592;8.850;2023-05-16T02:20:35;41.30;;;20.85;;
3941;SDS011;1985;48.592;8.850;2023-05-16T02:23:00;38.33;;;20.73;;
3941;SDS011;1985;48.592;8.850;2023-05-16T02:25:27;39.35;;;20.80;;
3941;SDS011;1985;48.592;8.850;2023-05-16T02:27:53;42.90;;;21.47;;
3941;SDS011;1985;48.592;8.850;2023-05-16T02:30:19;47.67;;;20.33;;
3941;SDS011;1985;48.592;8.850;2023-05-16T02:32:44;42.40;;;21.73;;
3941;SDS011;1985;48.592;8.850;2023-05-16T02:35:10;42.37;;;21.30;;
3941;SDS011;1985;48.592;8.850;2023-05-16T02:37:36;41.60;;;22.27;;
3941;SDS011;1985;48.592;8.850;2023-05-16T02:40:02;40.92;;;21.83;;
3941;SDS011;1985;48.592;8.850;2023-05-16T02:42:34;40.07;;;21.00;;
3941;SDS011;1985;48.592;8.850;2023-05-16T02:45:00;43.25;;;22.33;;
3941;SDS011;1985;48.592;8.850;2023-05-16T02:47:25;38.70;;;20.80;;
3941;SDS011;1985;48.592;8.850;2023-05-16T02:49:51;43.65;;;23.23;;
3941;SDS011;1985;48.592;8.850;2023-05-16T02:52:17;45.90;;;22.95;;
3941;SDS011;1985;48.592;8.850;2023-05-16T02:54:43;49.47;;;23.65;;
3941;SDS011;1985;48.592;8.850;2023-05-16T02:57:09;45.85;;;24.05;;
3941;SDS011;1985;48.592;8.850;2023-05-16T02:59:34;49.27;;;25.07;;
3941;SDS011;1985;48.592;8.850;2023-05-16T03:02:00;45.77;;;23.63;;
3941;SDS011;1985;48.592;8.850;2023-05-16T03:04:26;50.20;;;24.80;;
3941;SDS011;1985;48.592;8.850;2023-05-16T03:06:52;48.83;;;24.60;;
3941;SDS011;1985;48.592;8.850;2023-05-16T03:09:17;47.53;;;24.97;;
3941;SDS011;1985;48.592;8.850;2023-05-16T03:11:43;48.00;;;25.90;;
3941;SDS011;1985;48.592;8.850;2023-05-16T03:14:09;49.25;;;25.92;;
3941;SDS011;1985;48.592;8.850;2023-05-16T03:16:36;48.95;;;25.85;;
3941;SDS011;1985;48.592;8.850;2023-05-16T03:19:02;52.60;;;26.35;;
3941;SDS011;1985;48.592;8.850;2023-05-16T03:21:31;46.53;;;25.38;;
3941;SDS011;1985;48.592;8.850;2023-05-16T03:23:57;50.67;;;26.20;;
3941;SDS011;1985;48.592;8.850;2023-05-16T03:26:23;50.77;;;26.40;;
3941;SDS011;1985;48.592;8.850;2023-05-16T03:28:49;48.33;;;25.88;;
3941;SDS011;1985;48.592;8.850;2023-05-16T03:31:15;51.58;;;25.40;;
3941;SDS011;1985;48.592;8.850;2023-05-16T03:33:41;50.95;;;26.33;;
3941;SDS011;1985;48.592;8.850;2023-05-16T03:36:07;52.67;;;26.95;;
3941;SDS011;1985;48.592;8.850;2023-05-16T03:38:34;55.05;;;26.83;;
3941;SDS011;1985;48.592;8.850;2023-05-16T03:41:00;55.20;;;26.83;;
3941;SDS011;1985;48.592;8.850;2023-05-16T03:43:26;52.22;;;26.88;;
3941;SDS011;1985;48.592;8.850;2023-05-16T03:45:52;52.63;;;28.13;;
3941;SDS011;1985;48.592;8.850;2023-05-16T03:48:17;57.57;;;29.73;;
3941;SDS011;1985;48.592;8.850;2023-05-16T03:50:43;59.63;;;29.27;;
3941;SDS011;1985;48.592;8.850;2023-05-16T03:53:08;53.72;;;29.17;;
3941;SDS011;1985;48.592;8.850;2023-05-16T03:55:34;55.43;;;28.37;;
3941;SDS011;1985;48.592;8.850;2023-05-16T03:58:00;59.15;;;29.33;;
3941;SDS011;1985;48.592;8.850;2023-05-16T04:00:26;58.17;;;29.50;;
3941;SDS011;1985;48.592;8.850;2023-05-16T04:02:51;60.33;;;28.75;;
3941;SDS011;1985;48.592;8.850;2023-05-16T04:05:17;52.70;;;28.23;;
3941;SDS011;1985;48.592;8.850;2023-05-16T04:07:42;57.20;;;29.47;;
3941;SDS011;1985;48.592;8.850;2023-05-16T04:10:08;59.33;;;29.92;;
3941;SDS011;1985;48.592;8.850;2023-05-16T04:12:35;50.13;;;27.40;;
3941;SDS011;1985;48.592;8.850;2023-05-16T04:15:02;54.97;;;26.67;;
3941;SDS011;1985;48.592;8.850;2023-05-16T04:17:28;58.20;;;28.42;;
3941;SDS011;1985;48.592;8.850;2023-05-16T04:19:54;52.28;;;27.20;;
3941;SDS011;1985;48.592;8.850;2023-05-16T04:22:20;55.72;;;26.67;;
3941;SDS011;1985;48.592;8.850;2023-05-16T04:24:49;57.55;;;28.08;;
3941;SDS011;1985;48.592;8.850;2023-05-16T04:27:15;55.72;;;29.10;;
3941;SDS011;1985;48.592;8.850;2023-05-16T04:29:40;52.92;;;26.67;;
3941;SDS011;1985;48.592;8.850;2023-05-16T04:32:06;52.67;;;27.00;;
3941;SDS011;1985;48.592;8.850;2023-05-16T04:34:32;54.00;;;28.05;;
3941;SDS011;1985;48.592;8.850;2023-05-16T04:37:01;50.72;;;26.42;;
3941;SDS011;1985;48.592;8.850;2023-05-16T04:39:29;49.80;;;27.27;;
3941;SDS011;1985;48.592;8.850;2023-05-16T04:41:54;51.92;;;25.48;;
3941;SDS011;1985;48.592;8.850;2023-05-16T04:44:23;47.40;;;25.05;;
3941;SDS011;1985;48.592;8.850;2023-05-16T04:46:49;52.55;;;24.85;;
3941;SDS011;1985;48.592;8.850;2023-05-16T04:49:15;46.67;;;23.77;;
3941;SDS011;1985;48.592;8.850;2023-05-16T04:51:41;43.55;;;23.42;;
3941;SDS011;1985;48.592;8.850;2023-05-16T04:54:06;47.25;;;25.05;;
3941;SDS011;1985;48.592;8.850;2023-05-16T04:56:32;53.97;;;25.33;;
3941;SDS011;1985;48.592;8.850;2023-05-16T04:58:58;46.95;;;24.45;;
3941;SDS011;1985;48.592;8.850;2023-05-16T05:01:24;43.10;;;23.10;;
3941;SDS011;1985;48.592;8.850;2023-05-16T05:03:50;46.92;;;24.27;;
3941;SDS011;1985;48.592;8.850;2023-05-16T05:06:15;43.40;;;23.60;;
3941;SDS011;1985;48.592;8.850;2023-05-16T05:08:41;51.05;;;25.13;;
3941;SDS011;1985;48.592;8.850;2023-05-16T05:11:06;44.38;;;23.73;;
3941;SDS011;1985;48.592;8.850;2023-05-16T05:13:32;50.50;;;25.50;;
3941;SDS011;1985;48.592;8.850;2023-05-16T05:15:57;49.35;;;25.33;;
3941;SDS011;1985;48.592;8.850;2023-05-16T05:18:23;43.13;;;22.77;;
3941;SDS011;1985;48.592;8.850;2023-05-16T05:20:49;46.73;;;24.60;;
3941;SDS011;1985;48.592;8.850;2023-05-16T05:23:16;45.35;;;23.42;;
3941;SDS011;1985;48.592;8.850;2023-05-16T05:25:42;45.88;;;23.17;;
3941;SDS011;1985;48.592;8.850;2023-05-16T05:28:07;42.30;;;23.83;;
3941;SDS011;1985;48.592;8.850;2023-05-16T05:30:33;48.30;;;25.10;;
3941;SDS011;1985;48.592;8.850;2023-05-16T05:32:58;50.05;;;25.17;;
3941;SDS011;1985;48.592;8.850;2023-05-16T05:35:24;48.30;;;24.40;;
3941;SDS011;1985;48.592;8.850;2023-05-16T05:37:50;45.93;;;24.17;;
3941;SDS011;1985;48.592;8.850;2023-05-16T05:40:16;47.45;;;25.33;;
3941;SDS011;1985;48.592;8.850;2023-05-16T05:42:42;43.95;;;24.02;;
3941;SDS011;1985;48.592;8.850;2023-05-16T05:45:07;48.63;;;24.57;;
3941;SDS011;1985;48.592;8.850;2023-05-16T05:47:33;43.83;;;24.42;;
3941;SDS011;1985;48.592;8.850;2023-05-16T05:49:59;44.63;;;25.00;;
3941;SDS011;1985;48.592;8.850;2023-05-16T05:52:25;45.70;;;22.65;;
3941;SDS011;1985;48.592;8.850;2023-05-16T05:54:52;43.42;;;22.17;;
3941;SDS011;1985;48.592;8.850;2023-05-16T05:57:18;44.85;;;23.35;;
3941;SDS011;1985;48.592;8.850;2023-05-16T05:59:44;42.53;;;22.27;;
3941;SDS011;1985;48.592;8.850;2023-05-16T06:02:10;43.00;;;21.27;;
3941;SDS011;1985;48.592;8.850;2023-05-16T06:04:36;40.93;;;22.23;;
3941;SDS011;1985;48.592;8.850;2023-05-16T06:07:02;45.35;;;22.35;;
3941;SDS011;1985;48.592;8.850;2023-05-16T06:09:28;40.72;;;22.38;;
3941;SDS011;1985;48.592;8.850;2023-05-16T06:11:54;42.83;;;23.13;;
3941;SDS011;1985;48.592;8.850;2023-05-16T06:14:20;40.75;;;22.42;;
3941;SDS011;1985;48.592;8.850;2023-05-16T06:16:45;47.25;;;23.58;;
3941;SDS011;1985;48.592;8.850;2023-05-16T06:19:11;46.33;;;23.70;;
3941;SDS011;1985;48.592;8.850;2023-05-16T06:21:39;43.78;;;23.35;;
3941;SDS011;1985;48.592;8.850;2023-05-16T06:24:05;40.17;;;22.27;;
3941;SDS011;1985;48.592;8.850;2023-05-16T06:26:32;41.10;;;22.45;;
3941;SDS011;1985;48.592;8.850;2023-05-16T06:28:58;44.33;;;23.65;;
3941;SDS011;1985;48.592;8.850;2023-05-16T06:31:23;44.70;;;23.23;;
3941;SDS011;1985;48.592;8.850;2023-05-16T06:33:49;39.87;;;21.90;;
3941;SDS011;1985;48.592;8.850;2023-05-16T06:36:15;41.17;;;22.70;;
3941;SDS011;1985;48.592;8.850;2023-05-16T06:38:40;41.63;;;20.50;;
3941;SDS011;1985;48.592;8.850;2023-05-16T06:41:06;39.83;;;20.65;;
3941;SDS011;1985;48.592;8.850;2023-05-16T06:43:32;38.60;;;19.75;;
3941;SDS011;1985;48.592;8.850;2023-05-16T06:45:57;36.93;;;19.27;;
3941;SDS011;1985;48.592;8.850;2023-05-16T06:48:23;34.87;;;18.33;;
3941;SDS011;1985;48.592;8.850;2023-05-16T06:50:49;33.72;;;17.42;;
3941;SDS011;1985;48.592;8.850;2023-05-16T06:53:18;31.67;;;17.38;;
3941;SDS011;1985;48.592;8.850;2023-05-16T06:55:43;30.83;;;16.13;;
3941;SDS011;1985;48.592;8.850;2023-05-16T06:58:09;29.88;;;16.20;;
3941;SDS011;1985;48.592;8.850;2023-05-16T07:00:35;29.10;;;14.67;;
3941;SDS011;1985;48.592;8.850;2023-05-16T07:03:01;29.85;;;15.02;;
3941;SDS011;1985;48.592;8.850;2023-05-16T07:05:27;27.33;;;14.93;;
3941;SDS011;1985;48.592;8.850;2023-05-16T07:07:53;31.10;;;16.05;;
3941;SDS011;1985;48.592;8.850;2023-05-16T07:10:19;32.80;;;15.95;;
3941;SDS011;1985;48.592;8.850;2023-05-16T07:12:45;31.17;;;16.10;;
3941;SDS011;1985;48.592;8.850;2023-05-16T07:15:12;29.33;;;15.43;;
3941;SDS011;1985;48.592;8.850;2023-05-16T07:17:37;31.85;;;16.80;;
3941;SDS011;1985;48.592;8.850;2023-05-16T07:20:03;28.97;;;15.20;;
3941;SDS011;1985;48.592;8.850;2023-05-16T07:22:30;26.92;;;13.52;;
3941;SDS011;1985;48.592;8.850;2023-05-16T07:24:56;26.42;;;12.07;;
3941;SDS011;1985;48.592;8.850;2023-05-16T07:27:24;21.58;;;10.65;;
3941;SDS011;1985;48.592;8.850;2023-05-16T07:29:50;22.00;;;10.32;;
3941;SDS011;1985;48.592;8.850;2023-05-16T07:32:16;22.17;;;10.40;;
3941;SDS011;1985;48.592;8.850;2023-05-16T07:34:42;18.75;;;7.80;;
3941;SDS011;1985;48.592;8.850;2023-05-16T07:37:07;18.77;;;8.17;;
3941;SDS011;1985;48.592;8.850;2023-05-16T07:39:37;17.63;;;7.88;;
3941;SDS011;1985;48.592;8.850;2023-05-16T07:42:05;18.35;;;7.82;;
3941;SDS011;1985;48.592;8.850;2023-05-16T07:44:32;17.97;;;7.93;;
3941;SDS011;1985;48.592;8.850;2023-05-16T07:46:57;18.48;;;8.90;;
3941;SDS011;1985;48.592;8.850;2023-05-16T07:49:23;17.13;;;8.03;;
3941;SDS011;1985;48.592;8.850;2023-05-16T07:51:48;17.77;;;8.63;;
3941;SDS011;1985;48.592;8.850;2023-05-16T07:54:14;18.10;;;8.50;;
3941;SDS011;1985;48.592;8.850;2023-05-16T07:56:40;19.35;;;8.40;;
3941;SDS011;1985;48.592;8.850;2023-05-16T07:59:06;21.70;;;9.03;;
3941;SDS011;1985;48.592;8.850;2023-05-16T08:01:31;19.73;;;8.68;;
3941;SDS011;1985;48.592;8.850;2023-05-16T08:03:57;18.60;;;8.00;;
3941;SDS011;1985;48.592;8.850;2023-05-16T08:06:23;17.95;;;7.63;;
3941;SDS011;1985;48.592;8.850;2023-05-16T08:08:49;17.80;;;7.97;;
3941;SDS011;1985;48.592;8.850;2023-05-16T08:11:15;25.13;;;8.27;;
3941;SDS011;1985;48.592;8.850;2023-05-16T08:13:40;19.70;;;8.25;;
3941;SDS011;1985;48.592;8.850;2023-05-16T08:16:06;17.33;;;8.53;;
3941;SDS011;1985;48.592;8.850;2023-05-16T08:18:32;19.37;;;8.33;;
3941;SDS011;1985;48.592;8.850;2023-05-16T08:20:57;18.23;;;7.75;;
3941;SDS011;1985;48.592;8.850;2023-05-16T08:23:23;18.73;;;7.10;;
3941;SDS011;1985;48.592;8.850;2023-05-16T08:25:48;15.77;;;6.60;;
3941;SDS011;1985;48.592;8.850;2023-05-16T08:28:14;17.42;;;6.40;;
3941;SDS011;1985;48.592;8.850;2023-05-16T08:30:40;15.38;;;6.28;;
3941;SDS011;1985;48.592;8.850;2023-05-16T08:33:06;14.93;;;5.80;;
3941;SDS011;1985;48.592;8.850;2023-05-16T08:35:31;14.57;;;5.30;;
3941;SDS011;1985;48.592;8.850;2023-05-16T08:37:59;16.27;;;5.85;;
3941;SDS011;1985;48.592;8.850;2023-05-16T08:40:26;15.50;;;6.50;;
3941;SDS011;1985;48.592;8.850;2023-05-16T08:42:53;15.80;;;6.60;;
3941;SDS011;1985;48.592;8.850;2023-05-16T08:45:18;17.88;;;6.80;;
3941;SDS011;1985;48.592;8.850;2023-05-16T08:47:45;16.80;;;7.38;;
3941;SDS011;1985;48.592;8.850;2023-05-16T08:50:14;16.90;;;6.53;;
3941;SDS011;1985;48.592;8.850;2023-05-16T08:52:40;17.88;;;7.32;;
3941;SDS011;1985;48.592;8.850;2023-05-16T08:55:07;16.95;;;7.68;;
3941;SDS011;1985;48.592;8.850;2023-05-16T08:57:34;20.63;;;8.85;;
3941;SDS011;1985;48.592;8.850;2023-05-16T09:00:00;18.90;;;8.45;;
3941;SDS011;1985;48.592;8.850;2023-05-16T09:02:35;21.38;;;10.10;;
3941;SDS011;1985;48.592;8.850;2023-05-16T09:05:05;21.20;;;10.68;;
3941;SDS011;1985;48.592;8.850;2023-05-16T09:07:33;22.30;;;10.25;;
3941;SDS011;1985;48.592;8.850;2023-05-16T09:09:59;20.77;;;10.60;;
3941;SDS011;1985;48.592;8.850;2023-05-16T09:12:25;26.88;;;13.40;;
3941;SDS011;1985;48.592;8.850;2023-05-16T09:14:50;27.60;;;13.27;;
3941;SDS011;1985;48.592;8.850;2023-05-16T09:17:16;27.60;;;13.18;;
3941;SDS011;1985;48.592;8.850;2023-05-16T09:19:42;29.03;;;14.00;;
3941;SDS011;1985;48.592;8.850;2023-05-16T09:22:08;26.90;;;13.63;;
3941;SDS011;1985;48.592;8.850;2023-05-16T09:24:43;28.95;;;13.15;;
3941;SDS011;1985;48.592;8.850;2023-05-16T09:27:13;28.35;;;14.27;;
3941;SDS011;1985;48.592;8.850;2023-05-16T09:29:40;26.80;;;13.00;;
3941;SDS011;1985;48.592;8.850;2023-05-16T09:32:10;26.88;;;13.35;;
3941;SDS011;1985;48.592;8.850;2023-05-16T09:34:40;25.70;;;14.10;;
3941;SDS011;1985;48.592;8.850;2023-05-16T09:37:09;28.70;;;13.98;;
3941;SDS011;1985;48.592;8.850;2023-05-16T09:39:36;26.02;;;12.88;;
3941;SDS011;1985;48.592;8.850;2023-05-16T09:42:03;27.88;;;13.68;;
3941;SDS011;1985;48.592;8.850;2023-05-16T09:44:29;26.45;;;13.73;;
3941;SDS011;1985;48.592;8.850;2023-05-16T09:46:56;30.87;;;14.73;;
3941;SDS011;1985;48.592;8.850;2023-05-16T09:49:22;28.63;;;13.88;;
3941;SDS011;1985;48.592;8.850;2023-05-16T09:51:48;28.25;;;14.32;;
3941;SDS011;1985;48.592;8.850;2023-05-16T09:54:14;27.67;;;15.05;;
3941;SDS011;1985;48.592;8.850;2023-05-16T09:56:49;30.20;;;13.77;;
3941;SDS011;1985;48.592;8.850;2023-05-16T09:59:15;27.30;;;13.18;;
3941;SDS011;1985;48.592;8.850;2023-05-16T10:01:41;28.63;;;13.77;;
3941;SDS011;1985;48.592;8.850;2023-05-16T10:04:07;24.13;;;13.18;;
3941;SDS011;1985;48.592;8.850;2023-05-16T10:06:37;27.52;;;13.18;;
3941;SDS011;1985;48.592;8.850;2023-05-16T10:09:06;24.08;;;12.65;;
3941;SDS011;1985;48.592;8.850;2023-05-16T10:11:36;25.92;;;12.77;;
3941;SDS011;1985;48.592;8.850;2023-05-16T10:14:04;26.00;;;12.65;;
3941;SDS011;1985;48.592;8.850;2023-05-16T10:16:30;31.88;;;13.38;;
3941;SDS011;1985;48.592;8.850;2023-05-16T10:18:57;24.33;;;12.10;;
3941;SDS011;1985;48.592;8.850;2023-05-16T10:21:24;24.00;;;12.65;;
3941;SDS011;1985;48.592;8.850;2023-05-16T10:23:52;26.33;;;12.20;;
3941;SDS011;1985;48.592;8.850;2023-05-16T10:26:21;27.77;;;12.67;;
3941;SDS011;1985;48.592;8.850;2023-05-16T10:28:47;22.25;;;10.95;;
3941;SDS011;1985;48.592;8.850;2023-05-16T10:31:15;24.85;;;12.35;;
3941;SDS011;1985;48.592;8.850;2023-05-16T10:33:41;24.50;;;11.70;;
3941;SDS011;1985;48.592;8.850;2023-05-16T10:36:10;25.50;;;11.70;;
3941;SDS011;1985;48.592;8.850;2023-05-16T10:38:36;24.90;;;11.23;;
3941;SDS011;1985;48.592;8.850;2023-05-16T10:41:03;25.33;;;11.93;;
3941;SDS011;1985;48.592;8.850;2023-05-16T10:43:29;23.30;;;11.20;;
3941;SDS011;1985;48.592;8.850;2023-05-16T10:45:56;23.80;;;10.48;;
3941;SDS011;1985;48.592;8.850;2023-05-16T10:48:36;23.90;;;10.35;;
3941;SDS011;1985;48.592;8.850;2023-05-16T10:54:08;18.27;;;8.10;;
3941;SDS011;1985;48.592;8.850;2023-05-16T10:56:36;17.48;;;7.40;;
3941;SDS011;1985;48.592;8.850;2023-05-16T10:59:02;18.88;;;7.45;;
3941;SDS011;1985;48.592;8.850;2023-05-16T11:01:32;25.98;;;7.97;;
3941;SDS011;1985;48.592;8.850;2023-05-16T11:04:00;16.02;;;6.63;;
3941;SDS011;1985;48.592;8.850;2023-05-16T11:06:27;15.40;;;6.70;;
3941;SDS011;1985;48.592;8.850;2023-05-16T11:11:38;16.98;;;6.20;;
3941;SDS011;1985;48.592;8.850;2023-05-16T11:17:02;13.00;;;5.18;;
3941;SDS011;1985;48.592;8.850;2023-05-16T11:29:57;14.13;;;5.22;;
3941;SDS011;1985;48.592;8.850;2023-05-16T11:32:45;15.17;;;4.70;;
3941;SDS011;1985;48.592;8.850;2023-05-16T11:35:13;12.10;;;4.65;;
3941;SDS011;1985;48.592;8.850;2023-05-16T11:37:40;12.77;;;4.20;;
3941;SDS011;1985;48.592;8.850;2023-05-16T11:40:06;11.85;;;4.10;;
3941;SDS011;1985;48.592;8.850;2023-05-16T11:42:37;11.80;;;3.85;;
3941;SDS011;1985;48.592;8.850;2023-05-16T11:45:11;12.65;;;4.65;;
3941;SDS011;1985;48.592;8.850;2023-05-16T11:47:40;17.20;;;4.55;;
3941;SDS011;1985;48.592;8.850;2023-05-16T11:52:44;12.38;;;4.20;;
3941;SDS011;1985;48.592;8.850;2023-05-16T11:55:12;12.32;;;4.35;;
3941;SDS011;1985;48.592;8.850;2023-05-16T11:57:40;14.23;;;5.20;;
3941;SDS011;1985;48.592;8.850;2023-05-16T12:00:13;13.82;;;5.50;;
3941;SDS011;1985;48.592;8.850;2023-05-16T12:02:40;14.55;;;5.63;;
3941;SDS011;1985;48.592;8.850;2023-05-16T12:05:09;14.77;;;5.85;;
3941;SDS011;1985;48.592;8.850;2023-05-16T12:07:36;15.93;;;6.40;;
3941;SDS011;1985;48.592;8.850;2023-05-16T12:10:08;17.40;;;7.05;;
3941;SDS011;1985;48.592;8.850;2023-05-16T12:12:35;15.65;;;6.30;;
3941;SDS011;1985;48.592;8.850;2023-05-16T12:15:06;14.90;;;6.07;;
3941;SDS011;1985;48.592;8.850;2023-05-16T12:17:36;15.70;;;6.32;;
3941;SDS011;1985;48.592;8.850;2023-05-16T12:20:03;14.80;;;6.30;;
3941;SDS011;1985;48.592;8.850;2023-05-16T12:22:30;15.63;;;5.40;;
3941;SDS011;1985;48.592;8.850;2023-05-16T12:24:58;12.07;;;5.00;;
3941;SDS011;1985;48.592;8.850;2023-05-16T12:27:24;12.80;;;5.05;;
3941;SDS011;1985;48.592;8.850;2023-05-16T12:29:51;14.05;;;5.60;;
3941;SDS011;1985;48.592;8.850;2023-05-16T12:32:17;13.53;;;5.50;;
3941;SDS011;1985;48.592;8.850;2023-05-16T12:34:49;12.35;;;4.40;;
3941;SDS011;1985;48.592;8.850;2023-05-16T12:37:19;12.73;;;4.65;;
3941;SDS011;1985;48.592;8.850;2023-05-16T12:39:45;11.25;;;3.70;;
3941;SDS011;1985;48.592;8.850;2023-05-16T12:42:12;10.85;;;3.35;;
3941;SDS011;1985;48.592;8.850;2023-05-16T12:44:38;12.27;;;3.22;;
3941;SDS011;1985;48.592;8.850;2023-05-16T12:47:10;11.20;;;3.00;;
3941;SDS011;1985;48.592;8.850;2023-05-16T12:49:43;10.88;;;3.33;;
3941;SDS011;1985;48.592;8.850;2023-05-16T12:52:10;10.95;;;2.88;;
3941;SDS011;1985;48.592;8.850;2023-05-16T12:54:43;11.05;;;3.00;;
3941;SDS011;1985;48.592;8.850;2023-05-16T12:57:09;10.37;;;2.73;;
3941;SDS011;1985;48.592;8.850;2023-05-16T12:59:35;10.68;;;2.50;;
3941;SDS011;1985;48.592;8.850;2023-05-16T13:02:01;10.25;;;2.78;;
3941;SDS011;1985;48.592;8.850;2023-05-16T13:04:27;11.43;;;3.00;;
3941;SDS011;1985;48.592;8.850;2023-05-16T13:06:53;9.55;;;2.50;;
3941;SDS011;1985;48.592;8.850;2023-05-16T13:09:19;10.13;;;3.17;;
3941;SDS011;1985;48.592;8.850;2023-05-16T13:11:45;10.10;;;3.20;;
3941;SDS011;1985;48.592;8.850;2023-05-16T13:14:12;9.77;;;2.83;;
3941;SDS011;1985;48.592;8.850;2023-05-16T13:16:37;10.83;;;3.43;;
3941;SDS011;1985;48.592;8.850;2023-05-16T13:19:03;13.55;;;3.80;;
3941;SDS011;1985;48.592;8.850;2023-05-16T13:21:31;11.15;;;3.30;;
3941;SDS011;1985;48.592;8.850;2023-05-16T13:23:57;12.05;;;3.67;;
3941;SDS011;1985;48.592;8.850;2023-05-16T13:26:23;11.02;;;3.20;;
3941;SDS011;1985;48.592;8.850;2023-05-16T13:28:49;11.77;;;3.55;;
3941;SDS011;1985;48.592;8.850;2023-05-16T13:31:18;11.25;;;3.63;;
3941;SDS011;1985;48.592;8.850;2023-05-16T13:33:46;9.73;;;3.10;;
3941;SDS011;1985;48.592;8.850;2023-05-16T13:36:11;10.95;;;2.90;;
3941;SDS011;1985;48.592;8.850;2023-05-16T13:38:37;10.73;;;3.10;;
3941;SDS011;1985;48.592;8.850;2023-05-16T13:41:02;10.20;;;2.80;;
3941;SDS011;1985;48.592;8.850;2023-05-16T13:43:28;11.27;;;2.97;;
3941;SDS011;1985;48.592;8.850;2023-05-16T13:45:54;10.40;;;3.10;;
3941;SDS011;1985;48.592;8.850;2023-05-16T13:48:20;13.25;;;3.10;;
3941;SDS011;1985;48.592;8.850;2023-05-16T13:50:46;10.50;;;3.00;;
3941;SDS011;1985;48.592;8.850;2023-05-16T13:53:11;14.00;;;2.80;;
3941;SDS011;1985;48.592;8.850;2023-05-16T13:55:37;10.20;;;2.53;;
3941;SDS011;1985;48.592;8.850;2023-05-16T13:58:02;11.80;;;2.72;;
3941;SDS011;1985;48.592;8.850;2023-05-16T14:00:28;11.23;;;2.67;;
3941;SDS011;1985;48.592;8.850;2023-05-16T14:02:54;11.52;;;2.50;;
3941;SDS011;1985;48.592;8.850;2023-05-16T14:05:20;13.18;;;2.55;;
3941;SDS011;1985;48.592;8.850;2023-05-16T14:07:46;10.67;;;2.93;;
3941;SDS011;1985;48.592;8.850;2023-05-16T14:10:12;10.27;;;2.80;;
3941;SDS011;1985;48.592;8.850;2023-05-16T14:12:37;9.27;;;2.50;;
3941;SDS011;1985;48.592;8.850;2023-05-16T14:15:04;9.60;;;2.50;;
3941;SDS011;1985;48.592;8.850;2023-05-16T14:17:30;9.85;;;2.60;;
3941;SDS011;1985;48.592;8.850;2023-05-16T14:19:56;10.70;;;2.67;;
3941;SDS011;1985;48.592;8.850;2023-05-16T14:22:22;12.00;;;2.40;;
3941;SDS011;1985;48.592;8.850;2023-05-16T14:24:48;11.00;;;2.40;;
3941;SDS011;1985;48.592;8.850;2023-05-16T14:27:13;9.00;;;2.10;;
3941;SDS011;1985;48.592;8.850;2023-05-16T14:29:40;11.50;;;2.40;;
3941;SDS011;1985;48.592;8.850;2023-05-16T14:32:06;12.88;;;2.40;;
3941;SDS011;1985;48.592;8.850;2023-05-16T14:34:34;8.80;;;2.08;;
3941;SDS011;1985;48.592;8.850;2023-05-16T14:37:00;9.80;;;2.85;;
3941;SDS011;1985;48.592;8.850;2023-05-16T14:39:26;9.40;;;2.83;;
3941;SDS011;1985;48.592;8.850;2023-05-16T14:41:51;10.70;;;2.70;;
3941;SDS011;1985;48.592;8.850;2023-05-16T14:44:17;9.90;;;2.30;;
3941;SDS011;1985;48.592;8.850;2023-05-16T14:46:45;11.23;;;2.30;;
3941;SDS011;1985;48.592;8.850;2023-05-16T14:49:11;9.60;;;2.37;;
3941;SDS011;1985;48.592;8.850;2023-05-16T14:51:36;10.98;;;2.97;;
3941;SDS011;1985;48.592;8.850;2023-05-16T14:54:02;9.73;;;2.50;;
3941;SDS011;1985;48.592;8.850;2023-05-16T14:56:29;11.15;;;2.15;;
3941;SDS011;1985;48.592;8.850;2023-05-16T14:58:55;12.45;;;2.45;;
3941;SDS011;1985;48.592;8.850;2023-05-16T15:01:21;9.80;;;2.45;;
3941;SDS011;1985;48.592;8.850;2023-05-16T15:03:47;9.13;;;2.10;;
3941;SDS011;1985;48.592;8.850;2023-05-16T15:06:12;10.57;;;2.40;;
3941;SDS011;1985;48.592;8.850;2023-05-16T15:08:38;12.77;;;2.50;;
3941;SDS011;1985;48.592;8.850;2023-05-16T15:11:04;11.70;;;2.37;;
3941;SDS011;1985;48.592;8.850;2023-05-16T15:13:29;9.40;;;2.25;;
3941;SDS011;1985;48.592;8.850;2023-05-16T15:15:55;8.63;;;2.07;;
3941;SDS011;1985;48.592;8.850;2023-05-16T15:18:21;10.10;;;2.40;;
3941;SDS011;1985;48.592;8.850;2023-05-16T15:20:47;9.70;;;2.20;;